Terminal Aerodrome Forecast
Issued by NWS

Home | Current Version | Previous Version | Text Only | Print | Product List | Glossary On
Versions: 1 2 3 4 5 6 7 8 9 10 11 12 13 14 15 16 17 18 19 20
795
FTUS45 KABQ 231737
TAFGUP
TAF
KGUP 231737Z 2318/2418 21016G24KT P6SM FEW050
     FM232000 23022G32KT P6SM VCSH SCT060
     FM240100 24018KT 4SM -SN OVC030
      TEMPO 2405/2409 2SM -SN OVC009
     FM241500 24014KT P6SM VCSH OVC025=

USA.gov is the U.S. government's official web portal to all federal, state and local government web resources and services.